sensor_id;sensor_type;location;lat;lon;timestamp;temperature;humidity
15977;DHT22;8091;51.914;12.786;2022-08-05T00:01:23;25.80;41.30
15977;DHT22;8091;51.914;12.786;2022-08-05T00:03:49;25.80;53.40
15977;DHT22;8091;51.914;12.786;2022-08-05T00:06:16;25.60;66.00
15977;DHT22;8091;51.914;12.786;2022-08-05T00:08:43;25.60;83.00
15977;DHT22;8091;51.914;12.786;2022-08-05T00:11:11;25.50;92.70
15977;DHT22;8091;51.914;12.786;2022-08-05T00:13:39;25.40;99.90
15977;DHT22;8091;51.914;12.786;2022-08-05T00:16:08;25.30;99.90
15977;DHT22;8091;51.914;12.786;2022-08-05T00:18:35;25.20;99.90
15977;DHT22;8091;51.914;12.786;2022-08-05T00:21:01;25.20;99.90
15977;DHT22;8091;51.914;12.786;2022-08-05T00:23:27;25.10;99.90
15977;DHT22;8091;51.914;12.786;2022-08-05T00:25:52;25.10;99.90
15977;DHT22;8091;51.914;12.786;2022-08-05T00:28:18;25.10;99.90
15977;DHT22;8091;51.914;12.786;2022-08-05T00:30:43;25.00;99.90
15977;DHT22;8091;51.914;12.786;2022-08-05T00:33:09;24.90;99.90
15977;DHT22;8091;51.914;12.786;2022-08-05T00:35:34;24.90;99.90
15977;DHT22;8091;51.914;12.786;2022-08-05T00:38:01;24.90;99.90
15977;DHT22;8091;51.914;12.786;2022-08-05T00:40:27;24.90;99.90
15977;DHT22;8091;51.914;12.786;2022-08-05T00:42:53;24.90;99.90
15977;DHT22;8091;51.914;12.786;2022-08-05T00:45:19;25.00;99.90
15977;DHT22;8091;51.914;12.786;2022-08-05T00:47:44;25.10;99.90
15977;DHT22;8091;51.914;12.786;2022-08-05T00:50:10;25.00;99.90
15977;DHT22;8091;51.914;12.786;2022-08-05T00:52:36;25.00;99.90
15977;DHT22;8091;51.914;12.786;2022-08-05T00:55:02;25.00;99.90
15977;DHT22;8091;51.914;12.786;2022-08-05T00:57:27;25.00;99.90
15977;DHT22;8091;51.914;12.786;2022-08-05T00:59:53;25.00;99.90
15977;DHT22;8091;51.914;12.786;2022-08-05T01:02:19;25.00;99.90
15977;DHT22;8091;51.914;12.786;2022-08-05T01:04:44;25.00;99.90
15977;DHT22;8091;51.914;12.786;2022-08-05T01:07:10;25.10;99.90
15977;DHT22;8091;51.914;12.786;2022-08-05T01:09:36;25.00;99.90
15977;DHT22;8091;51.914;12.786;2022-08-05T01:12:13;24.90;99.90
15977;DHT22;8091;51.914;12.786;2022-08-05T01:14:50;25.00;99.90
15977;DHT22;8091;51.914;12.786;2022-08-05T01:20:25;24.90;99.90
15977;DHT22;8091;51.914;12.786;2022-08-05T01:28:37;24.80;99.90
15977;DHT22;8091;51.914;12.786;2022-08-05T01:31:33;24.70;99.90
15977;DHT22;8091;51.914;12.786;2022-08-05T01:34:11;24.60;99.90
15977;DHT22;8091;51.914;12.786;2022-08-05T01:36:45;24.60;99.90
15977;DHT22;8091;51.914;12.786;2022-08-05T01:39:12;24.60;99.90
15977;DHT22;8091;51.914;12.786;2022-08-05T01:41:41;24.50;99.90
15977;DHT22;8091;51.914;12.786;2022-08-05T01:44:07;24.60;1.00
15977;DHT22;8091;51.914;12.786;2022-08-05T01:46:34;24.50;1.00
15977;DHT22;8091;51.914;12.786;2022-08-05T01:49:02;24.50;1.00
15977;DHT22;8091;51.914;12.786;2022-08-05T01:51:30;24.50;1.00
15977;DHT22;8091;51.914;12.786;2022-08-05T01:53:58;24.40;1.00
15977;DHT22;8091;51.914;12.786;2022-08-05T01:56:31;24.40;1.00
15977;DHT22;8091;51.914;12.786;2022-08-05T01:58:59;24.40;1.00
15977;DHT22;8091;51.914;12.786;2022-08-05T02:01:27;24.50;1.00
15977;DHT22;8091;51.914;12.786;2022-08-05T02:03:54;24.40;1.00
15977;DHT22;8091;51.914;12.786;2022-08-05T02:06:21;24.40;1.00
15977;DHT22;8091;51.914;12.786;2022-08-05T02:08:47;24.30;1.00
15977;DHT22;8091;51.914;12.786;2022-08-05T02:11:14;24.40;1.00
15977;DHT22;8091;51.914;12.786;2022-08-05T02:16:25;24.40;1.00
15977;DHT22;8091;51.914;12.786;2022-08-05T02:18:57;24.40;1.00
15977;DHT22;8091;51.914;12.786;2022-08-05T02:21:48;24.50;1.00
15977;DHT22;8091;51.914;12.786;2022-08-05T02:24:18;24.40;1.00
15977;DHT22;8091;51.914;12.786;2022-08-05T02:26:54;24.40;1.00
15977;DHT22;8091;51.914;12.786;2022-08-05T02:29:23;24.40;1.00
15977;DHT22;8091;51.914;12.786;2022-08-05T02:31:50;24.30;1.00
15977;DHT22;8091;51.914;12.786;2022-08-05T02:34:19;24.20;1.00
15977;DHT22;8091;51.914;12.786;2022-08-05T02:36:53;24.20;1.00
15977;DHT22;8091;51.914;12.786;2022-08-05T02:39:21;24.10;1.00
15977;DHT22;8091;51.914;12.786;2022-08-05T02:41:48;24.10;1.00
15977;DHT22;8091;51.914;12.786;2022-08-05T02:44:15;24.10;1.00
15977;DHT22;8091;51.914;12.786;2022-08-05T02:46:44;24.10;1.00
15977;DHT22;8091;51.914;12.786;2022-08-05T02:49:12;24.00;25.10
15977;DHT22;8091;51.914;12.786;2022-08-05T02:51:38;24.00;50.60
15977;DHT22;8091;51.914;12.786;2022-08-05T02:54:04;23.90;93.10
15977;DHT22;8091;51.914;12.786;2022-08-05T02:56:32;23.90;99.90
15977;DHT22;8091;51.914;12.786;2022-08-05T02:58:58;23.90;99.90
15977;DHT22;8091;51.914;12.786;2022-08-05T03:01:25;23.80;99.90
15977;DHT22;8091;51.914;12.786;2022-08-05T03:03:53;23.80;99.90
15977;DHT22;8091;51.914;12.786;2022-08-05T03:06:20;23.70;99.90
15977;DHT22;8091;51.914;12.786;2022-08-05T03:08:46;23.70;99.90
15977;DHT22;8091;51.914;12.786;2022-08-05T03:11:23;23.70;99.90
15977;DHT22;8091;51.914;12.786;2022-08-05T03:13:50;23.70;99.90
15977;DHT22;8091;51.914;12.786;2022-08-05T03:16:16;23.70;99.90
15977;DHT22;8091;51.914;12.786;2022-08-05T03:18:42;23.70;99.90
15977;DHT22;8091;51.914;12.786;2022-08-05T03:21:08;23.60;99.90
15977;DHT22;8091;51.914;12.786;2022-08-05T03:23:34;23.60;99.90
15977;DHT22;8091;51.914;12.786;2022-08-05T03:26:01;23.60;99.90
15977;DHT22;8091;51.914;12.786;2022-08-05T03:28:28;23.80;99.90
15977;DHT22;8091;51.914;12.786;2022-08-05T03:30:55;23.70;99.90
15977;DHT22;8091;51.914;12.786;2022-08-05T03:33:22;23.70;99.90
15977;DHT22;8091;51.914;12.786;2022-08-05T03:35:48;23.70;99.90
15977;DHT22;8091;51.914;12.786;2022-08-05T03:38:15;23.60;99.90
15977;DHT22;8091;51.914;12.786;2022-08-05T03:40:42;23.60;99.90
15977;DHT22;8091;51.914;12.786;2022-08-05T03:43:07;23.60;99.90
15977;DHT22;8091;51.914;12.786;2022-08-05T03:45:33;23.60;99.90
15977;DHT22;8091;51.914;12.786;2022-08-05T03:47:59;23.60;99.90
15977;DHT22;8091;51.914;12.786;2022-08-05T03:50:34;23.60;99.90
15977;DHT22;8091;51.914;12.786;2022-08-05T03:53:09;23.70;99.90
15977;DHT22;8091;51.914;12.786;2022-08-05T03:55:41;23.70;99.90
15977;DHT22;8091;51.914;12.786;2022-08-05T03:58:10;23.70;99.90
15977;DHT22;8091;51.914;12.786;2022-08-05T04:00:37;23.70;99.90
15977;DHT22;8091;51.914;12.786;2022-08-05T04:03:05;23.80;99.90
15977;DHT22;8091;51.914;12.786;2022-08-05T04:05:33;23.80;99.90
15977;DHT22;8091;51.914;12.786;2022-08-05T04:08:05;23.80;99.90
15977;DHT22;8091;51.914;12.786;2022-08-05T04:10:32;23.90;99.90
15977;DHT22;8091;51.914;12.786;2022-08-05T04:12:59;24.00;99.90
15977;DHT22;8091;51.914;12.786;2022-08-05T04:15:28;24.00;99.90
15977;DHT22;8091;51.914;12.786;2022-08-05T04:17:54;24.00;99.90
15977;DHT22;8091;51.914;12.786;2022-08-05T04:20:21;24.00;99.90
15977;DHT22;8091;51.914;12.786;2022-08-05T04:22:47;24.00;99.90
15977;DHT22;8091;51.914;12.786;2022-08-05T04:25:14;24.00;99.90
15977;DHT22;8091;51.914;12.786;2022-08-05T04:27:47;24.00;99.90
15977;DHT22;8091;51.914;12.786;2022-08-05T04:30:12;24.10;99.90
15977;DHT22;8091;51.914;12.786;2022-08-05T04:32:39;24.10;99.90
15977;DHT22;8091;51.914;12.786;2022-08-05T04:35:06;24.20;99.90
15977;DHT22;8091;51.914;12.786;2022-08-05T04:37:32;24.20;99.90
15977;DHT22;8091;51.914;12.786;2022-08-05T04:39:57;24.20;99.90
15977;DHT22;8091;51.914;12.786;2022-08-05T04:42:23;24.20;99.90
15977;DHT22;8091;51.914;12.786;2022-08-05T04:44:49;24.30;99.90
15977;DHT22;8091;51.914;12.786;2022-08-05T04:47:15;24.30;95.70
15977;DHT22;8091;51.914;12.786;2022-08-05T04:49:40;24.30;78.00
15977;DHT22;8091;51.914;12.786;2022-08-05T04:52:06;24.40;85.60
15977;DHT22;8091;51.914;12.786;2022-08-05T04:54:32;24.60;1.30
15977;DHT22;8091;51.914;12.786;2022-08-05T04:56:57;24.60;1.00
15977;DHT22;8091;51.914;12.786;2022-08-05T04:59:23;24.60;1.00
15977;DHT22;8091;51.914;12.786;2022-08-05T05:01:49;24.70;1.00
15977;DHT22;8091;51.914;12.786;2022-08-05T05:04:15;24.70;1.00
15977;DHT22;8091;51.914;12.786;2022-08-05T05:06:41;24.80;1.00
15977;DHT22;8091;51.914;12.786;2022-08-05T05:09:06;24.90;1.00
15977;DHT22;8091;51.914;12.786;2022-08-05T05:11:32;24.90;1.00
15977;DHT22;8091;51.914;12.786;2022-08-05T05:13:58;24.90;1.00
15977;DHT22;8091;51.914;12.786;2022-08-05T05:16:23;24.90;1.00
15977;DHT22;8091;51.914;12.786;2022-08-05T05:18:49;24.90;1.00
15977;DHT22;8091;51.914;12.786;2022-08-05T05:21:14;24.90;1.00
15977;DHT22;8091;51.914;12.786;2022-08-05T05:23:40;24.80;1.00
15977;DHT22;8091;51.914;12.786;2022-08-05T05:26:06;24.80;1.00
15977;DHT22;8091;51.914;12.786;2022-08-05T05:28:33;24.90;1.00
15977;DHT22;8091;51.914;12.786;2022-08-05T05:30:59;24.90;1.00
15977;DHT22;8091;51.914;12.786;2022-08-05T05:33:25;24.80;1.00
15977;DHT22;8091;51.914;12.786;2022-08-05T05:35:50;24.90;1.00
15977;DHT22;8091;51.914;12.786;2022-08-05T05:38:16;24.80;1.00
15977;DHT22;8091;51.914;12.786;2022-08-05T05:40:42;24.70;1.00
15977;DHT22;8091;51.914;12.786;2022-08-05T05:43:09;24.70;1.00
15977;DHT22;8091;51.914;12.786;2022-08-05T05:45:34;24.60;1.00
15977;DHT22;8091;51.914;12.786;2022-08-05T05:48:00;24.60;1.00
15977;DHT22;8091;51.914;12.786;2022-08-05T05:50:26;24.60;1.00
15977;DHT22;8091;51.914;12.786;2022-08-05T05:52:51;24.40;1.00
15977;DHT22;8091;51.914;12.786;2022-08-05T05:55:17;24.40;32.20
15977;DHT22;8091;51.914;12.786;2022-08-05T05:57:45;24.50;16.00
15977;DHT22;8091;51.914;12.786;2022-08-05T06:00:18;24.60;12.80
15977;DHT22;8091;51.914;12.786;2022-08-05T06:02:44;24.70;1.00
15977;DHT22;8091;51.914;12.786;2022-08-05T06:05:13;24.90;1.00
15977;DHT22;8091;51.914;12.786;2022-08-05T06:07:39;24.90;1.00
15977;DHT22;8091;51.914;12.786;2022-08-05T06:10:07;25.10;1.00
15977;DHT22;8091;51.914;12.786;2022-08-05T06:12:34;25.30;1.00
15977;DHT22;8091;51.914;12.786;2022-08-05T06:15:02;25.60;1.00
15977;DHT22;8091;51.914;12.786;2022-08-05T06:17:28;25.80;1.00
15977;DHT22;8091;51.914;12.786;2022-08-05T06:19:53;25.80;1.00
15977;DHT22;8091;51.914;12.786;2022-08-05T06:22:28;25.90;1.00
15977;DHT22;8091;51.914;12.786;2022-08-05T06:24:54;26.00;1.00
15977;DHT22;8091;51.914;12.786;2022-08-05T06:27:19;25.90;1.00
15977;DHT22;8091;51.914;12.786;2022-08-05T06:29:45;25.90;1.00
15977;DHT22;8091;51.914;12.786;2022-08-05T06:32:11;26.00;1.00
15977;DHT22;8091;51.914;12.786;2022-08-05T06:34:36;26.10;1.00
15977;DHT22;8091;51.914;12.786;2022-08-05T06:37:02;26.10;1.00
15977;DHT22;8091;51.914;12.786;2022-08-05T06:39:28;26.10;1.00
15977;DHT22;8091;51.914;12.786;2022-08-05T06:41:58;26.00;1.00
15977;DHT22;8091;51.914;12.786;2022-08-05T06:44:26;25.90;1.00
15977;DHT22;8091;51.914;12.786;2022-08-05T06:46:52;25.70;1.00
15977;DHT22;8091;51.914;12.786;2022-08-05T06:49:17;25.70;1.00
15977;DHT22;8091;51.914;12.786;2022-08-05T06:51:43;25.70;1.00
15977;DHT22;8091;51.914;12.786;2022-08-05T06:54:09;25.70;1.00
15977;DHT22;8091;51.914;12.786;2022-08-05T06:56:34;25.60;1.00
15977;DHT22;8091;51.914;12.786;2022-08-05T06:59:00;25.50;1.00
15977;DHT22;8091;51.914;12.786;2022-08-05T07:01:26;25.40;1.00
15977;DHT22;8091;51.914;12.786;2022-08-05T07:03:51;25.30;1.00
15977;DHT22;8091;51.914;12.786;2022-08-05T07:06:18;25.20;1.00
15977;DHT22;8091;51.914;12.786;2022-08-05T07:08:44;25.30;1.00
15977;DHT22;8091;51.914;12.786;2022-08-05T07:11:10;25.20;1.00
15977;DHT22;8091;51.914;12.786;2022-08-05T07:13:35;25.20;1.00
15977;DHT22;8091;51.914;12.786;2022-08-05T07:16:20;25.20;1.00
15977;DHT22;8091;51.914;12.786;2022-08-05T07:19:04;25.00;1.00
15977;DHT22;8091;51.914;12.786;2022-08-05T07:21:29;25.10;47.70
15977;DHT22;8091;51.914;12.786;2022-08-05T07:23:55;25.00;99.90
15977;DHT22;8091;51.914;12.786;2022-08-05T07:26:21;25.00;1.00
15977;DHT22;8091;51.914;12.786;2022-08-05T07:28:47;25.00;1.00
15977;DHT22;8091;51.914;12.786;2022-08-05T07:31:13;24.90;14.80
15977;DHT22;8091;51.914;12.786;2022-08-05T07:33:38;24.90;1.00
15977;DHT22;8091;51.914;12.786;2022-08-05T07:36:05;24.80;1.00
15977;DHT22;8091;51.914;12.786;2022-08-05T07:38:32;24.80;99.90
15977;DHT22;8091;51.914;12.786;2022-08-05T07:41:05;24.70;98.70
15977;DHT22;8091;51.914;12.786;2022-08-05T07:43:31;24.60;99.90
15977;DHT22;8091;51.914;12.786;2022-08-05T07:45:57;24.60;1.00
15977;DHT22;8091;51.914;12.786;2022-08-05T07:48:28;24.50;1.00
15977;DHT22;8091;51.914;12.786;2022-08-05T07:50:53;24.40;1.00
15977;DHT22;8091;51.914;12.786;2022-08-05T07:53:25;24.40;1.00
15977;DHT22;8091;51.914;12.786;2022-08-05T07:55:51;24.20;1.00
15977;DHT22;8091;51.914;12.786;2022-08-05T07:58:20;24.00;1.00
15977;DHT22;8091;51.914;12.786;2022-08-05T08:00:46;24.00;99.90
15977;DHT22;8091;51.914;12.786;2022-08-05T08:03:12;24.00;1.00
15977;DHT22;8091;51.914;12.786;2022-08-05T08:05:39;24.20;99.90
15977;DHT22;8091;51.914;12.786;2022-08-05T08:08:12;24.40;1.00
15977;DHT22;8091;51.914;12.786;2022-08-05T08:10:39;24.30;1.00
15977;DHT22;8091;51.914;12.786;2022-08-05T08:13:05;24.40;99.90
15977;DHT22;8091;51.914;12.786;2022-08-05T08:15:31;24.30;99.90
15977;DHT22;8091;51.914;12.786;2022-08-05T08:17:57;24.30;99.90
15977;DHT22;8091;51.914;12.786;2022-08-05T08:20:24;24.20;9.80
15977;DHT22;8091;51.914;12.786;2022-08-05T08:22:55;24.40;70.60
15977;DHT22;8091;51.914;12.786;2022-08-05T08:25:21;24.50;1.00
15977;DHT22;8091;51.914;12.786;2022-08-05T08:27:48;24.70;1.00
15977;DHT22;8091;51.914;12.786;2022-08-05T08:30:14;25.00;1.00
15977;DHT22;8091;51.914;12.786;2022-08-05T08:32:40;25.20;1.00
15977;DHT22;8091;51.914;12.786;2022-08-05T08:35:07;25.40;99.90
15977;DHT22;8091;51.914;12.786;2022-08-05T08:37:35;25.50;99.90
15977;DHT22;8091;51.914;12.786;2022-08-05T08:40:02;25.70;99.90
15977;DHT22;8091;51.914;12.786;2022-08-05T08:42:28;25.80;64.60
15977;DHT22;8091;51.914;12.786;2022-08-05T08:44:56;25.90;22.70
15977;DHT22;8091;51.914;12.786;2022-08-05T08:47:26;25.90;1.00
15977;DHT22;8091;51.914;12.786;2022-08-05T08:49:53;25.80;27.60
15977;DHT22;8091;51.914;12.786;2022-08-05T08:52:24;25.70;11.60
15977;DHT22;8091;51.914;12.786;2022-08-05T08:54:57;25.60;15.80
15977;DHT22;8091;51.914;12.786;2022-08-05T08:57:26;25.70;2.30
15977;DHT22;8091;51.914;12.786;2022-08-05T08:59:53;25.60;1.00
15977;DHT22;8091;51.914;12.786;2022-08-05T09:02:19;25.60;81.20
15977;DHT22;8091;51.914;12.786;2022-08-05T09:04:46;25.70;81.40
15977;DHT22;8091;51.914;12.786;2022-08-05T09:07:12;25.70;99.90
15977;DHT22;8091;51.914;12.786;2022-08-05T09:09:38;25.70;99.90
15977;DHT22;8091;51.914;12.786;2022-08-05T09:12:07;25.60;99.90
15977;DHT22;8091;51.914;12.786;2022-08-05T09:14:37;25.50;1.00
15977;DHT22;8091;51.914;12.786;2022-08-05T09:17:04;25.70;99.90
15977;DHT22;8091;51.914;12.786;2022-08-05T09:19:30;25.80;1.00
15977;DHT22;8091;51.914;12.786;2022-08-05T09:21:56;25.70;1.00
15977;DHT22;8091;51.914;12.786;2022-08-05T09:24:21;25.70;1.00
15977;DHT22;8091;51.914;12.786;2022-08-05T09:26:51;25.80;1.00
15977;DHT22;8091;51.914;12.786;2022-08-05T09:29:17;26.10;1.00
15977;DHT22;8091;51.914;12.786;2022-08-05T09:31:42;26.40;1.00
15977;DHT22;8091;51.914;12.786;2022-08-05T09:34:10;26.70;99.90
15977;DHT22;8091;51.914;12.786;2022-08-05T09:36:43;27.10;99.90
15977;DHT22;8091;51.914;12.786;2022-08-05T09:39:11;27.40;53.60
15977;DHT22;8091;51.914;12.786;2022-08-05T09:41:59;27.50;1.00
15977;DHT22;8091;51.914;12.786;2022-08-05T09:44:33;27.70;1.00
15977;DHT22;8091;51.914;12.786;2022-08-05T09:47:13;27.40;1.00
15977;DHT22;8091;51.914;12.786;2022-08-05T09:49:45;27.40;1.00
15977;DHT22;8091;51.914;12.786;2022-08-05T09:52:25;27.60;1.00
15977;DHT22;8091;51.914;12.786;2022-08-05T09:55:00;27.60;1.00
15977;DHT22;8091;51.914;12.786;2022-08-05T09:57:42;27.30;1.00
15977;DHT22;8091;51.914;12.786;2022-08-05T10:03:10;26.70;1.00
15977;DHT22;8091;51.914;12.786;2022-08-05T10:05:36;26.30;1.00
15977;DHT22;8091;51.914;12.786;2022-08-05T10:08:04;26.20;99.90
15977;DHT22;8091;51.914;12.786;2022-08-05T10:10:38;26.10;99.90
15977;DHT22;8091;51.914;12.786;2022-08-05T10:13:10;26.10;99.90
15977;DHT22;8091;51.914;12.786;2022-08-05T10:15:38;26.00;1.00
15977;DHT22;8091;51.914;12.786;2022-08-05T10:18:16;25.80;1.00
15977;DHT22;8091;51.914;12.786;2022-08-05T10:21:07;25.70;91.40
15977;DHT22;8091;51.914;12.786;2022-08-05T10:23:35;25.80;99.90
15977;DHT22;8091;51.914;12.786;2022-08-05T10:26:04;25.80;1.00
15977;DHT22;8091;51.914;12.786;2022-08-05T10:28:31;26.30;1.00
15977;DHT22;8091;51.914;12.786;2022-08-05T10:30:58;26.50;1.00
15977;DHT22;8091;51.914;12.786;2022-08-05T10:33:26;26.70;99.90
15977;DHT22;8091;51.914;12.786;2022-08-05T10:35:52;27.00;99.90
15977;DHT22;8091;51.914;12.786;2022-08-05T10:38:26;27.00;99.90
15977;DHT22;8091;51.914;12.786;2022-08-05T10:46:15;26.80;97.30
15977;DHT22;8091;51.914;12.786;2022-08-05T10:48:56;26.70;92.60
15977;DHT22;8091;51.914;12.786;2022-08-05T10:51:22;26.70;99.90
15977;DHT22;8091;51.914;12.786;2022-08-05T10:53:59;26.60;91.60
15977;DHT22;8091;51.914;12.786;2022-08-05T10:56:27;27.10;99.90
15977;DHT22;8091;51.914;12.786;2022-08-05T11:01:39;27.00;1.00
15977;DHT22;8091;51.914;12.786;2022-08-05T11:04:16;26.70;30.00
15977;DHT22;8091;51.914;12.786;2022-08-05T11:09:41;26.70;99.90
15977;DHT22;8091;51.914;12.786;2022-08-05T11:17:41;26.80;99.90
15977;DHT22;8091;51.914;12.786;2022-08-05T11:20:31;26.80;99.90
15977;DHT22;8091;51.914;12.786;2022-08-05T11:22:57;26.80;99.90
15977;DHT22;8091;51.914;12.786;2022-08-05T11:25:30;27.20;1.00
15977;DHT22;8091;51.914;12.786;2022-08-05T11:35:55;32.60;99.90
15977;DHT22;8091;51.914;12.786;2022-08-05T11:41:16;34.00;99.90
15977;DHT22;8091;51.914;12.786;2022-08-05T11:44:05;34.50;99.90
15977;DHT22;8091;51.914;12.786;2022-08-05T11:46:39;34.80;99.90
15977;DHT22;8091;51.914;12.786;2022-08-05T11:49:06;35.70;99.90
15977;DHT22;8091;51.914;12.786;2022-08-05T11:51:32;35.90;99.90
15977;DHT22;8091;51.914;12.786;2022-08-05T11:53:58;36.00;92.00
15977;DHT22;8091;51.914;12.786;2022-08-05T11:57:03;35.70;76.00
15977;DHT22;8091;51.914;12.786;2022-08-05T11:59:29;35.10;71.20
15977;DHT22;8091;51.914;12.786;2022-08-05T12:04:26;35.90;62.80
15977;DHT22;8091;51.914;12.786;2022-08-05T12:06:52;36.50;50.60
15977;DHT22;8091;51.914;12.786;2022-08-05T12:09:23;35.70;44.30
15977;DHT22;8091;51.914;12.786;2022-08-05T12:11:49;35.70;41.40
15977;DHT22;8091;51.914;12.786;2022-08-05T12:14:15;35.50;39.00
15977;DHT22;8091;51.914;12.786;2022-08-05T12:16:43;36.10;38.60
15977;DHT22;8091;51.914;12.786;2022-08-05T12:19:10;36.70;36.20
15977;DHT22;8091;51.914;12.786;2022-08-05T12:21:46;36.50;34.30
15977;DHT22;8091;51.914;12.786;2022-08-05T12:24:18;37.20;34.30
15977;DHT22;8091;51.914;12.786;2022-08-05T12:26:46;38.90;28.00
15977;DHT22;8091;51.914;12.786;2022-08-05T12:29:21;40.10;18.30
15977;DHT22;8091;51.914;12.786;2022-08-05T12:34:18;40.10;4.70
15977;DHT22;8091;51.914;12.786;2022-08-05T12:36:45;39.10;1.50
15977;DHT22;8091;51.914;12.786;2022-08-05T12:39:12;38.00;3.10
15977;DHT22;8091;51.914;12.786;2022-08-05T12:41:39;38.70;1.50
15977;DHT22;8091;51.914;12.786;2022-08-05T12:44:08;39.30;1.00
15977;DHT22;8091;51.914;12.786;2022-08-05T12:46:36;39.50;1.00
15977;DHT22;8091;51.914;12.786;2022-08-05T12:49:06;39.20;1.00
15977;DHT22;8091;51.914;12.786;2022-08-05T12:51:56;38.70;1.00
15977;DHT22;8091;51.914;12.786;2022-08-05T12:54:27;38.40;1.00
15977;DHT22;8091;51.914;12.786;2022-08-05T12:56:59;37.50;1.00
15977;DHT22;8091;51.914;12.786;2022-08-05T12:59:30;38.40;1.00
15977;DHT22;8091;51.914;12.786;2022-08-05T13:02:06;38.50;1.00
15977;DHT22;8091;51.914;12.786;2022-08-05T13:04:42;38.20;1.00
15977;DHT22;8091;51.914;12.786;2022-08-05T13:07:15;37.80;1.00
15977;DHT22;8091;51.914;12.786;2022-08-05T13:09:51;37.60;1.00
15977;DHT22;8091;51.914;12.786;2022-08-05T13:12:18;38.10;1.00
15977;DHT22;8091;51.914;12.786;2022-08-05T13:14:47;38.20;1.00
15977;DHT22;8091;51.914;12.786;2022-08-05T13:17:23;37.90;1.00
15977;DHT22;8091;51.914;12.786;2022-08-05T13:19:59;37.50;1.00
15977;DHT22;8091;51.914;12.786;2022-08-05T13:22:25;37.30;1.00
15977;DHT22;8091;51.914;12.786;2022-08-05T13:24:51;37.30;1.00
15977;DHT22;8091;51.914;12.786;2022-08-05T13:27:29;37.50;1.00
15977;DHT22;8091;51.914;12.786;2022-08-05T13:29:55;37.40;1.00
15977;DHT22;8091;51.914;12.786;2022-08-05T13:32:21;37.80;1.00
15977;DHT22;8091;51.914;12.786;2022-08-05T13:34:47;37.40;1.00
15977;DHT22;8091;51.914;12.786;2022-08-05T13:37:14;36.20;1.00
15977;DHT22;8091;51.914;12.786;2022-08-05T13:39:39;35.60;1.00
15977;DHT22;8091;51.914;12.786;2022-08-05T13:42:06;35.00;1.00
15977;DHT22;8091;51.914;12.786;2022-08-05T13:44:32;33.70;1.00
15977;DHT22;8091;51.914;12.786;2022-08-05T13:46:57;33.00;1.00
15977;DHT22;8091;51.914;12.786;2022-08-05T13:49:23;32.30;1.00
15977;DHT22;8091;51.914;12.786;2022-08-05T13:51:48;31.90;1.00
15977;DHT22;8091;51.914;12.786;2022-08-05T13:54:17;31.50;1.00
15977;DHT22;8091;51.914;12.786;2022-08-05T13:56:46;31.30;1.00
15977;DHT22;8091;51.914;12.786;2022-08-05T13:59:12;31.30;1.00
15977;DHT22;8091;51.914;12.786;2022-08-05T14:01:38;31.30;1.00
15977;DHT22;8091;51.914;12.786;2022-08-05T14:04:04;31.40;1.00
15977;DHT22;8091;51.914;12.786;2022-08-05T14:06:54;31.40;2.40
15977;DHT22;8091;51.914;12.786;2022-08-05T14:09:22;31.70;2.30
15977;DHT22;8091;51.914;12.786;2022-08-05T14:11:48;31.80;2.70
15977;DHT22;8091;51.914;12.786;2022-08-05T14:14:14;32.00;3.30
15977;DHT22;8091;51.914;12.786;2022-08-05T14:16:39;32.20;3.60
15977;DHT22;8091;51.914;12.786;2022-08-05T14:19:05;31.80;4.20
15977;DHT22;8091;51.914;12.786;2022-08-05T14:21:30;32.00;5.00
15977;DHT22;8091;51.914;12.786;2022-08-05T14:23:56;32.60;3.90
15977;DHT22;8091;51.914;12.786;2022-08-05T14:26:21;33.00;2.40
15977;DHT22;8091;51.914;12.786;2022-08-05T14:28:47;33.60;1.30
15977;DHT22;8091;51.914;12.786;2022-08-05T14:31:12;34.70;1.00
15977;DHT22;8091;51.914;12.786;2022-08-05T14:33:38;36.40;1.00
15977;DHT22;8091;51.914;12.786;2022-08-05T14:36:04;36.90;1.00
15977;DHT22;8091;51.914;12.786;2022-08-05T14:38:37;38.10;1.00
15977;DHT22;8091;51.914;12.786;2022-08-05T14:41:03;39.60;1.00
15977;DHT22;8091;51.914;12.786;2022-08-05T14:43:29;41.00;1.00
15977;DHT22;8091;51.914;12.786;2022-08-05T14:45:55;41.90;1.00
15977;DHT22;8091;51.914;12.786;2022-08-05T14:48:24;42.40;1.00
15977;DHT22;8091;51.914;12.786;2022-08-05T14:50:52;41.40;1.00
15977;DHT22;8091;51.914;12.786;2022-08-05T14:53:18;39.70;1.00
15977;DHT22;8091;51.914;12.786;2022-08-05T14:55:43;37.70;1.00
15977;DHT22;8091;51.914;12.786;2022-08-05T14:58:09;36.50;1.00
15977;DHT22;8091;51.914;12.786;2022-08-05T15:00:35;35.00;1.00
15977;DHT22;8091;51.914;12.786;2022-08-05T15:03:01;33.20;1.00
15977;DHT22;8091;51.914;12.786;2022-08-05T15:05:34;31.40;1.00
15977;DHT22;8091;51.914;12.786;2022-08-05T15:08:01;30.50;1.00
15977;DHT22;8091;51.914;12.786;2022-08-05T15:10:27;30.40;1.00
15977;DHT22;8091;51.914;12.786;2022-08-05T15:12:53;30.20;1.00
15977;DHT22;8091;51.914;12.786;2022-08-05T15:15:18;30.00;1.00
15977;DHT22;8091;51.914;12.786;2022-08-05T15:17:44;29.60;1.00
15977;DHT22;8091;51.914;12.786;2022-08-05T15:20:11;29.20;1.00
15977;DHT22;8091;51.914;12.786;2022-08-05T15:22:37;28.90;1.00
15977;DHT22;8091;51.914;12.786;2022-08-05T15:25:04;28.60;1.00
15977;DHT22;8091;51.914;12.786;2022-08-05T15:27:30;28.10;1.00
15977;DHT22;8091;51.914;12.786;2022-08-05T15:29:55;28.00;4.60
15977;DHT22;8091;51.914;12.786;2022-08-05T15:32:22;28.00;13.20
15977;DHT22;8091;51.914;12.786;2022-08-05T15:34:48;27.60;44.50
15977;DHT22;8091;51.914;12.786;2022-08-05T15:37:13;27.60;99.90
15977;DHT22;8091;51.914;12.786;2022-08-05T15:39:39;27.30;99.90
15977;DHT22;8091;51.914;12.786;2022-08-05T15:42:04;27.10;99.90
15977;DHT22;8091;51.914;12.786;2022-08-05T15:44:38;27.00;99.90
15977;DHT22;8091;51.914;12.786;2022-08-05T15:47:03;26.90;1.00
15977;DHT22;8091;51.914;12.786;2022-08-05T15:49:29;26.30;99.90
15977;DHT22;8091;51.914;12.786;2022-08-05T15:51:54;25.90;99.90
15977;DHT22;8091;51.914;12.786;2022-08-05T15:54:20;25.60;1.00
15977;DHT22;8091;51.914;12.786;2022-08-05T15:56:45;25.40;1.00
15977;DHT22;8091;51.914;12.786;2022-08-05T15:59:11;25.00;1.00
15977;DHT22;8091;51.914;12.786;2022-08-05T16:01:36;24.70;1.00
15977;DHT22;8091;51.914;12.786;2022-08-05T16:04:02;24.60;1.00
15977;DHT22;8091;51.914;12.786;2022-08-05T16:06:28;24.50;1.00
15977;DHT22;8091;51.914;12.786;2022-08-05T16:08:53;24.50;99.90
15977;DHT22;8091;51.914;12.786;2022-08-05T16:11:19;24.50;1.00
15977;DHT22;8091;51.914;12.786;2022-08-05T16:13:44;24.50;1.00
15977;DHT22;8091;51.914;12.786;2022-08-05T16:16:10;24.40;99.90
15977;DHT22;8091;51.914;12.786;2022-08-05T16:18:36;24.40;99.90
15977;DHT22;8091;51.914;12.786;2022-08-05T16:21:02;24.30;1.00
15977;DHT22;8091;51.914;12.786;2022-08-05T16:23:28;24.40;99.90
15977;DHT22;8091;51.914;12.786;2022-08-05T16:26:04;24.40;1.00
15977;DHT22;8091;51.914;12.786;2022-08-05T16:28:30;24.40;1.00
15977;DHT22;8091;51.914;12.786;2022-08-05T16:30:55;24.30;99.90
15977;DHT22;8091;51.914;12.786;2022-08-05T16:33:21;24.40;31.20